sensor_id;sensor_type;location;lat;lon;timestamp;temperature;humidity
40059;SHT31;25763;49.972;8.568;2024-02-15T00:00:04;10.86;91.20
40059;SHT31;25763;49.972;8.568;2024-02-15T00:02:29;10.82;91.19
40059;SHT31;25763;49.972;8.568;2024-02-15T00:04:54;10.80;91.15
40059;SHT31;25763;49.972;8.568;2024-02-15T00:07:21;10.76;91.15
40059;SHT31;25763;49.972;8.568;2024-02-15T00:09:47;10.79;91.15
40059;SHT31;25763;49.972;8.568;2024-02-15T00:12:13;10.77;91.18
40059;SHT31;25763;49.972;8.568;2024-02-15T00:14:38;10.79;91.29
40059;SHT31;25763;49.972;8.568;2024-02-15T00:17:03;10.80;91.21
40059;SHT31;25763;49.972;8.568;2024-02-15T00:19:29;10.82;91.20
40059;SHT31;25763;49.972;8.568;2024-02-15T00:21:55;10.83;91.15
40059;SHT31;25763;49.972;8.568;2024-02-15T00:24:22;10.83;91.12
40059;SHT31;25763;49.972;8.568;2024-02-15T00:26:47;10.85;91.11
40059;SHT31;25763;49.972;8.568;2024-02-15T00:29:13;10.82;91.12
40059;SHT31;25763;49.972;8.568;2024-02-15T00:31:39;10.79;91.04
40059;SHT31;25763;49.972;8.568;2024-02-15T00:34:05;10.76;91.03
40059;SHT31;25763;49.972;8.568;2024-02-15T00:36:31;10.79;91.02
40059;SHT31;25763;49.972;8.568;2024-02-15T00:38:57;10.77;91.01
40059;SHT31;25763;49.972;8.568;2024-02-15T00:41:23;10.76;90.99
40059;SHT31;25763;49.972;8.568;2024-02-15T00:43:48;10.76;91.02
40059;SHT31;25763;49.972;8.568;2024-02-15T00:46:16;10.72;91.02
40059;SHT31;25763;49.972;8.568;2024-02-15T00:48:41;10.69;90.94
40059;SHT31;25763;49.972;8.568;2024-02-15T00:51:07;10.68;90.99
40059;SHT31;25763;49.972;8.568;2024-02-15T00:53:32;10.67;91.01
40059;SHT31;25763;49.972;8.568;2024-02-15T00:55:58;10.65;90.98
40059;SHT31;25763;49.972;8.568;2024-02-15T00:58:23;10.65;91.03
40059;SHT31;25763;49.972;8.568;2024-02-15T01:00:49;10.67;91.05
40059;SHT31;25763;49.972;8.568;2024-02-15T01:03:15;10.67;91.04
40059;SHT31;25763;49.972;8.568;2024-02-15T01:05:41;10.68;91.12
40059;SHT31;25763;49.972;8.568;2024-02-15T01:08:06;10.65;91.06
40059;SHT31;25763;49.972;8.568;2024-02-15T01:10:31;10.67;91.06
40059;SHT31;25763;49.972;8.568;2024-02-15T01:12:58;10.68;91.11
40059;SHT31;25763;49.972;8.568;2024-02-15T01:15:24;10.71;91.13
40059;SHT31;25763;49.972;8.568;2024-02-15T01:17:49;10.73;91.12
40059;SHT31;25763;49.972;8.568;2024-02-15T01:20:14;10.76;91.10
40059;SHT31;25763;49.972;8.568;2024-02-15T01:22:40;10.79;91.10
40059;SHT31;25763;49.972;8.568;2024-02-15T01:25:06;10.79;91.03
40059;SHT31;25763;49.972;8.568;2024-02-15T01:27:32;10.82;91.03
40059;SHT31;25763;49.972;8.568;2024-02-15T01:29:57;10.83;91.02
40059;SHT31;25763;49.972;8.568;2024-02-15T01:32:23;10.89;90.91
40059;SHT31;25763;49.972;8.568;2024-02-15T01:34:48;10.85;90.90
40059;SHT31;25763;49.972;8.568;2024-02-15T01:37:16;10.89;90.87
40059;SHT31;25763;49.972;8.568;2024-02-15T01:39:42;10.90;90.80
40059;SHT31;25763;49.972;8.568;2024-02-15T01:42:07;10.89;90.79
40059;SHT31;25763;49.972;8.568;2024-02-15T01:44:32;10.93;90.75
40059;SHT31;25763;49.972;8.568;2024-02-15T01:47:00;10.94;90.70
40059;SHT31;25763;49.972;8.568;2024-02-15T01:49:27;10.92;90.65
40059;SHT31;25763;49.972;8.568;2024-02-15T01:51:53;10.94;90.59
40059;SHT31;25763;49.972;8.568;2024-02-15T01:54:22;10.93;90.59
40059;SHT31;25763;49.972;8.568;2024-02-15T01:56:47;10.96;90.51
40059;SHT31;25763;49.972;8.568;2024-02-15T01:59:15;10.93;90.50
40059;SHT31;25763;49.972;8.568;2024-02-15T02:01:40;10.96;90.48
40059;SHT31;25763;49.972;8.568;2024-02-15T02:04:06;10.94;90.44
40059;SHT31;25763;49.972;8.568;2024-02-15T02:06:32;10.96;90.40
40059;SHT31;25763;49.972;8.568;2024-02-15T02:08:58;10.94;90.33
40059;SHT31;25763;49.972;8.568;2024-02-15T02:11:24;10.96;90.28
40059;SHT31;25763;49.972;8.568;2024-02-15T02:13:49;10.96;90.25
40059;SHT31;25763;49.972;8.568;2024-02-15T02:16:29;10.97;90.25
40059;SHT31;25763;49.972;8.568;2024-02-15T02:18:58;11.00;90.18
40059;SHT31;25763;49.972;8.568;2024-02-15T02:21:28;11.04;90.17
40059;SHT31;25763;49.972;8.568;2024-02-15T02:23:56;11.04;90.11
40059;SHT31;25763;49.972;8.568;2024-02-15T02:26:23;11.07;90.02
40059;SHT31;25763;49.972;8.568;2024-02-15T02:28:49;11.03;90.00
40059;SHT31;25763;49.972;8.568;2024-02-15T02:31:14;11.03;89.96
40059;SHT31;25763;49.972;8.568;2024-02-15T02:33:41;11.01;89.89
40059;SHT31;25763;49.972;8.568;2024-02-15T02:36:06;11.04;89.91
40059;SHT31;25763;49.972;8.568;2024-02-15T02:38:37;11.04;89.84
40059;SHT31;25763;49.972;8.568;2024-02-15T02:41:06;11.06;89.85
40059;SHT31;25763;49.972;8.568;2024-02-15T02:43:31;11.08;89.78
40059;SHT31;25763;49.972;8.568;2024-02-15T02:45:56;11.10;89.75
40059;SHT31;25763;49.972;8.568;2024-02-15T02:48:22;11.08;89.73
40059;SHT31;25763;49.972;8.568;2024-02-15T02:50:48;11.11;89.67
40059;SHT31;25763;49.972;8.568;2024-02-15T02:53:14;11.11;89.67
40059;SHT31;25763;49.972;8.568;2024-02-15T02:55:43;11.11;89.59
40059;SHT31;25763;49.972;8.568;2024-02-15T02:58:08;11.10;89.60
40059;SHT31;25763;49.972;8.568;2024-02-15T03:00:34;11.08;89.56
40059;SHT31;25763;49.972;8.568;2024-02-15T03:02:59;11.14;89.58
40059;SHT31;25763;49.972;8.568;2024-02-15T03:05:25;11.12;89.52
40059;SHT31;25763;49.972;8.568;2024-02-15T03:07:51;11.14;89.48
40059;SHT31;25763;49.972;8.568;2024-02-15T03:10:17;11.14;89.50
40059;SHT31;25763;49.972;8.568;2024-02-15T03:12:44;11.18;89.44
40059;SHT31;25763;49.972;8.568;2024-02-15T03:15:12;11.22;89.40
40059;SHT31;25763;49.972;8.568;2024-02-15T03:17:42;11.20;89.36
40059;SHT31;25763;49.972;8.568;2024-02-15T03:20:09;11.22;89.31
40059;SHT31;25763;49.972;8.568;2024-02-15T03:22:55;11.20;89.16
40059;SHT31;25763;49.972;8.568;2024-02-15T03:25:21;11.18;89.15
40059;SHT31;25763;49.972;8.568;2024-02-15T03:27:53;11.15;89.09
40059;SHT31;25763;49.972;8.568;2024-02-15T03:30:19;11.14;89.18
40059;SHT31;25763;49.972;8.568;2024-02-15T03:32:45;11.11;89.18
40059;SHT31;25763;49.972;8.568;2024-02-15T03:35:14;11.10;89.19
40059;SHT31;25763;49.972;8.568;2024-02-15T03:37:40;11.06;89.21
40059;SHT31;25763;49.972;8.568;2024-02-15T03:40:07;11.03;89.19
40059;SHT31;25763;49.972;8.568;2024-02-15T03:42:34;10.99;89.21
40059;SHT31;25763;49.972;8.568;2024-02-15T03:45:03;10.96;89.28
40059;SHT31;25763;49.972;8.568;2024-02-15T03:47:28;10.99;89.32
40059;SHT31;25763;49.972;8.568;2024-02-15T03:49:54;10.99;89.28
40059;SHT31;25763;49.972;8.568;2024-02-15T03:52:21;10.97;89.30
40059;SHT31;25763;49.972;8.568;2024-02-15T03:54:47;11.04;89.27
40059;SHT31;25763;49.972;8.568;2024-02-15T03:57:12;11.04;89.25
40059;SHT31;25763;49.972;8.568;2024-02-15T03:59:38;10.99;89.25
40059;SHT31;25763;49.972;8.568;2024-02-15T04:02:05;11.06;89.11
40059;SHT31;25763;49.972;8.568;2024-02-15T04:04:33;11.01;89.09
40059;SHT31;25763;49.972;8.568;2024-02-15T04:06:59;10.99;89.07
40059;SHT31;25763;49.972;8.568;2024-02-15T04:09:25;11.03;89.02
40059;SHT31;25763;49.972;8.568;2024-02-15T04:11:50;11.03;88.97
40059;SHT31;25763;49.972;8.568;2024-02-15T04:14:18;10.99;88.95
40059;SHT31;25763;49.972;8.568;2024-02-15T04:16:44;10.97;88.99
40059;SHT31;25763;49.972;8.568;2024-02-15T04:19:10;10.92;89.08
40059;SHT31;25763;49.972;8.568;2024-02-15T04:21:36;10.94;89.03
40059;SHT31;25763;49.972;8.568;2024-02-15T04:24:01;10.93;89.04
40059;SHT31;25763;49.972;8.568;2024-02-15T04:26:27;10.90;89.05
40059;SHT31;25763;49.972;8.568;2024-02-15T04:28:55;10.93;89.08
40059;SHT31;25763;49.972;8.568;2024-02-15T04:31:20;10.92;89.11
40059;SHT31;25763;49.972;8.568;2024-02-15T04:33:52;10.90;89.18
40059;SHT31;25763;49.972;8.568;2024-02-15T04:36:17;10.93;89.23
40059;SHT31;25763;49.972;8.568;2024-02-15T04:38:48;10.94;89.15
40059;SHT31;25763;49.972;8.568;2024-02-15T04:41:15;10.92;89.19
40059;SHT31;25763;49.972;8.568;2024-02-15T04:43:44;10.93;89.13
40059;SHT31;25763;49.972;8.568;2024-02-15T04:46:11;10.97;89.14
40059;SHT31;25763;49.972;8.568;2024-02-15T04:48:37;11.03;89.08
40059;SHT31;25763;49.972;8.568;2024-02-15T04:51:02;11.03;88.99
40059;SHT31;25763;49.972;8.568;2024-02-15T04:53:27;11.06;88.93
40059;SHT31;25763;49.972;8.568;2024-02-15T04:55:55;11.07;88.81
40059;SHT31;25763;49.972;8.568;2024-02-15T04:58:20;11.08;88.86
40059;SHT31;25763;49.972;8.568;2024-02-15T05:00:45;11.08;88.77
40059;SHT31;25763;49.972;8.568;2024-02-15T05:03:12;11.07;88.72
40059;SHT31;25763;49.972;8.568;2024-02-15T05:05:37;11.12;88.63
40059;SHT31;25763;49.972;8.568;2024-02-15T05:08:04;11.08;88.55
40059;SHT31;25763;49.972;8.568;2024-02-15T05:10:29;11.06;88.59
40059;SHT31;25763;49.972;8.568;2024-02-15T05:12:55;11.07;88.57
40059;SHT31;25763;49.972;8.568;2024-02-15T05:15:21;11.08;88.59
40059;SHT31;25763;49.972;8.568;2024-02-15T05:17:50;11.10;88.46
40059;SHT31;25763;49.972;8.568;2024-02-15T05:20:15;11.11;88.45
40059;SHT31;25763;49.972;8.568;2024-02-15T05:22:41;11.03;88.47
40059;SHT31;25763;49.972;8.568;2024-02-15T05:25:11;10.97;88.56
40059;SHT31;25763;49.972;8.568;2024-02-15T05:27:38;11.00;88.63
40059;SHT31;25763;49.972;8.568;2024-02-15T05:30:03;11.03;88.60
40059;SHT31;25763;49.972;8.568;2024-02-15T05:32:33;10.99;88.59
40059;SHT31;25763;49.972;8.568;2024-02-15T05:35:00;11.01;88.57
40059;SHT31;25763;49.972;8.568;2024-02-15T05:37:27;11.00;88.53
40059;SHT31;25763;49.972;8.568;2024-02-15T05:39:52;10.99;88.56
40059;SHT31;25763;49.972;8.568;2024-02-15T05:42:19;10.97;88.54
40059;SHT31;25763;49.972;8.568;2024-02-15T05:44:44;10.99;88.49
40059;SHT31;25763;49.972;8.568;2024-02-15T05:47:11;11.01;88.46
40059;SHT31;25763;49.972;8.568;2024-02-15T05:49:36;10.96;88.46
40059;SHT31;25763;49.972;8.568;2024-02-15T05:52:02;10.99;88.40
40059;SHT31;25763;49.972;8.568;2024-02-15T05:54:28;11.00;88.40
40059;SHT31;25763;49.972;8.568;2024-02-15T05:56:53;11.06;88.41
40059;SHT31;25763;49.972;8.568;2024-02-15T05:59:20;11.04;88.37
40059;SHT31;25763;49.972;8.568;2024-02-15T06:01:46;11.01;88.28
40059;SHT31;25763;49.972;8.568;2024-02-15T06:04:14;11.01;88.25
40059;SHT31;25763;49.972;8.568;2024-02-15T06:06:40;11.01;88.22
40059;SHT31;25763;49.972;8.568;2024-02-15T06:09:05;11.03;88.17
40059;SHT31;25763;49.972;8.568;2024-02-15T06:11:30;11.03;88.16
40059;SHT31;25763;49.972;8.568;2024-02-15T06:13:56;11.03;88.14
40059;SHT31;25763;49.972;8.568;2024-02-15T06:16:21;11.01;88.09
40059;SHT31;25763;49.972;8.568;2024-02-15T06:18:47;11.07;88.08
40059;SHT31;25763;49.972;8.568;2024-02-15T06:21:13;11.08;88.04
40059;SHT31;25763;49.972;8.568;2024-02-15T06:23:38;11.07;87.98
40059;SHT31;25763;49.972;8.568;2024-02-15T06:26:04;11.06;87.90
40059;SHT31;25763;49.972;8.568;2024-02-15T06:28:29;11.07;87.82
40059;SHT31;25763;49.972;8.568;2024-02-15T06:31:14;11.11;87.79
40059;SHT31;25763;49.972;8.568;2024-02-15T06:33:58;11.14;87.72
40059;SHT31;25763;49.972;8.568;2024-02-15T06:36:47;11.11;87.65
40059;SHT31;25763;49.972;8.568;2024-02-15T06:39:31;11.18;87.69
40059;SHT31;25763;49.972;8.568;2024-02-15T06:42:04;11.22;87.52
40059;SHT31;25763;49.972;8.568;2024-02-15T06:44:29;11.22;87.44
40059;SHT31;25763;49.972;8.568;2024-02-15T06:46:55;11.27;87.43
40059;SHT31;25763;49.972;8.568;2024-02-15T06:49:21;11.24;87.35
40059;SHT31;25763;49.972;8.568;2024-02-15T06:51:50;11.24;87.24
40059;SHT31;25763;49.972;8.568;2024-02-15T06:54:16;11.24;87.28
40059;SHT31;25763;49.972;8.568;2024-02-15T06:56:43;11.22;87.23
40059;SHT31;25763;49.972;8.568;2024-02-15T06:59:11;11.18;87.21
40059;SHT31;25763;49.972;8.568;2024-02-15T07:01:42;11.24;87.21
40059;SHT31;25763;49.972;8.568;2024-02-15T07:04:08;11.21;87.19
40059;SHT31;25763;49.972;8.568;2024-02-15T07:06:36;11.24;87.13
40059;SHT31;25763;49.972;8.568;2024-02-15T07:09:03;11.25;87.13
40059;SHT31;25763;49.972;8.568;2024-02-15T07:11:28;11.25;87.09
40059;SHT31;25763;49.972;8.568;2024-02-15T07:13:55;11.22;87.12
40059;SHT31;25763;49.972;8.568;2024-02-15T07:16:21;11.29;87.10
40059;SHT31;25763;49.972;8.568;2024-02-15T07:18:46;11.34;87.08
40059;SHT31;25763;49.972;8.568;2024-02-15T07:21:12;11.31;87.03
40059;SHT31;25763;49.972;8.568;2024-02-15T07:23:39;11.36;87.03
40059;SHT31;25763;49.972;8.568;2024-02-15T07:26:06;11.39;86.97
40059;SHT31;25763;49.972;8.568;2024-02-15T07:28:32;11.38;86.81
40059;SHT31;25763;49.972;8.568;2024-02-15T07:30:57;11.38;86.78
40059;SHT31;25763;49.972;8.568;2024-02-15T07:33:23;11.42;86.68
40059;SHT31;25763;49.972;8.568;2024-02-15T07:35:49;11.42;86.57
40059;SHT31;25763;49.972;8.568;2024-02-15T07:38:18;11.45;86.49
40059;SHT31;25763;49.972;8.568;2024-02-15T07:40:44;11.49;86.48
40059;SHT31;25763;49.972;8.568;2024-02-15T07:43:09;11.51;86.38
40059;SHT31;25763;49.972;8.568;2024-02-15T07:45:35;11.52;86.03
40059;SHT31;25763;49.972;8.568;2024-02-15T07:48:03;11.52;86.02
40059;SHT31;25763;49.972;8.568;2024-02-15T07:50:32;11.52;85.89
40059;SHT31;25763;49.972;8.568;2024-02-15T07:52:58;11.56;85.86
40059;SHT31;25763;49.972;8.568;2024-02-15T07:55:23;11.58;85.66
40059;SHT31;25763;49.972;8.568;2024-02-15T07:57:52;11.59;85.65
40059;SHT31;25763;49.972;8.568;2024-02-15T08:00:18;11.66;85.53
40059;SHT31;25763;49.972;8.568;2024-02-15T08:02:43;11.71;85.45
40059;SHT31;25763;49.972;8.568;2024-02-15T08:05:10;11.73;85.33
40059;SHT31;25763;49.972;8.568;2024-02-15T08:07:42;11.79;85.06
40059;SHT31;25763;49.972;8.568;2024-02-15T08:10:09;11.76;84.84
40059;SHT31;25763;49.972;8.568;2024-02-15T08:12:45;11.84;84.68
40059;SHT31;25763;49.972;8.568;2024-02-15T08:15:12;11.87;84.72
40059;SHT31;25763;49.972;8.568;2024-02-15T08:17:41;11.87;84.57
40059;SHT31;25763;49.972;8.568;2024-02-15T08:20:09;11.86;84.42
40059;SHT31;25763;49.972;8.568;2024-02-15T08:22:35;11.91;84.31
40059;SHT31;25763;49.972;8.568;2024-02-15T08:25:05;11.99;84.34
40059;SHT31;25763;49.972;8.568;2024-02-15T08:27:30;11.99;83.99
40059;SHT31;25763;49.972;8.568;2024-02-15T08:29:57;12.05;83.99
40059;SHT31;25763;49.972;8.568;2024-02-15T08:32:23;12.12;83.87
40059;SHT31;25763;49.972;8.568;2024-02-15T08:34:48;12.09;83.71
40059;SHT31;25763;49.972;8.568;2024-02-15T08:37:14;12.17;83.71
40059;SHT31;25763;49.972;8.568;2024-02-15T08:39:39;12.25;83.71
40059;SHT31;25763;49.972;8.568;2024-02-15T08:42:04;12.26;83.39
40059;SHT31;25763;49.972;8.568;2024-02-15T08:44:30;12.28;83.23
40059;SHT31;25763;49.972;8.568;2024-02-15T08:46:55;12.39;83.33
40059;SHT31;25763;49.972;8.568;2024-02-15T08:49:21;12.40;83.02
40059;SHT31;25763;49.972;8.568;2024-02-15T08:51:47;12.40;82.68
40059;SHT31;25763;49.972;8.568;2024-02-15T08:54:12;12.52;82.97
40059;SHT31;25763;49.972;8.568;2024-02-15T08:56:37;12.45;82.52
40059;SHT31;25763;49.972;8.568;2024-02-15T08:59:03;12.55;82.73
40059;SHT31;25763;49.972;8.568;2024-02-15T09:01:28;12.60;82.48
40059;SHT31;25763;49.972;8.568;2024-02-15T09:03:53;12.65;82.50
40059;SHT31;25763;49.972;8.568;2024-02-15T09:06:19;12.67;82.26
40059;SHT31;25763;49.972;8.568;2024-02-15T09:08:44;12.74;82.11
40059;SHT31;25763;49.972;8.568;2024-02-15T09:11:11;12.84;82.04
40059;SHT31;25763;49.972;8.568;2024-02-15T09:13:37;12.87;81.98
40059;SHT31;25763;49.972;8.568;2024-02-15T09:16:04;12.78;81.64
40059;SHT31;25763;49.972;8.568;2024-02-15T09:18:29;12.77;81.65
40059;SHT31;25763;49.972;8.568;2024-02-15T09:20:55;12.80;81.37
40059;SHT31;25763;49.972;8.568;2024-02-15T09:23:21;12.89;81.58
40059;SHT31;25763;49.972;8.568;2024-02-15T09:25:49;12.89;81.39
40059;SHT31;25763;49.972;8.568;2024-02-15T09:28:20;12.84;81.26
40059;SHT31;25763;49.972;8.568;2024-02-15T09:30:48;12.94;81.30
40059;SHT31;25763;49.972;8.568;2024-02-15T09:33:13;12.95;81.04
40059;SHT31;25763;49.972;8.568;2024-02-15T09:35:38;12.97;80.92
40059;SHT31;25763;49.972;8.568;2024-02-15T09:38:04;13.14;81.00
40059;SHT31;25763;49.972;8.568;2024-02-15T09:40:31;13.36;80.97
40059;SHT31;25763;49.972;8.568;2024-02-15T09:42:56;13.51;80.18
40059;SHT31;25763;49.972;8.568;2024-02-15T09:45:23;13.51;79.47
40059;SHT31;25763;49.972;8.568;2024-02-15T09:47:50;13.61;79.69
40059;SHT31;25763;49.972;8.568;2024-02-15T09:50:18;13.53;79.35
40059;SHT31;25763;49.972;8.568;2024-02-15T09:52:51;13.55;79.29
40059;SHT31;25763;49.972;8.568;2024-02-15T09:55:17;13.36;79.19
40059;SHT31;25763;49.972;8.568;2024-02-15T09:57:44;13.41;79.70
40059;SHT31;25763;49.972;8.568;2024-02-15T10:00:10;13.46;79.62
40059;SHT31;25763;49.972;8.568;2024-02-15T10:02:43;13.57;79.52
40059;SHT31;25763;49.972;8.568;2024-02-15T10:05:10;13.77;79.44
40059;SHT31;25763;49.972;8.568;2024-02-15T10:07:42;13.81;78.68
40059;SHT31;25763;49.972;8.568;2024-02-15T10:10:21;13.93;79.06
40059;SHT31;25763;49.972;8.568;2024-02-15T10:12:50;14.05;78.34
40059;SHT31;25763;49.972;8.568;2024-02-15T10:15:33;14.12;78.08
40059;SHT31;25763;49.972;8.568;2024-02-15T10:18:09;14.18;77.82
40059;SHT31;25763;49.972;8.568;2024-02-15T10:20:40;14.31;77.34
40059;SHT31;25763;49.972;8.568;2024-02-15T10:23:13;14.52;77.21
40059;SHT31;25763;49.972;8.568;2024-02-15T10:25:42;14.76;77.02
40059;SHT31;25763;49.972;8.568;2024-02-15T10:28:09;14.85;76.19
40059;SHT31;25763;49.972;8.568;2024-02-15T10:30:36;14.86;75.03
40059;SHT31;25763;49.972;8.568;2024-02-15T10:33:02;14.89;75.14
40059;SHT31;25763;49.972;8.568;2024-02-15T10:35:28;14.92;75.24
40059;SHT31;25763;49.972;8.568;2024-02-15T10:38:08;15.11;75.54
40059;SHT31;25763;49.972;8.568;2024-02-15T10:40:34;15.31;75.05
40059;SHT31;25763;49.972;8.568;2024-02-15T10:43:02;15.45;75.01
40059;SHT31;25763;49.972;8.568;2024-02-15T10:45:30;15.18;73.86
40059;SHT31;25763;49.972;8.568;2024-02-15T10:47:56;15.27;73.57
40059;SHT31;25763;49.972;8.568;2024-02-15T10:50:22;15.49;73.88
40059;SHT31;25763;49.972;8.568;2024-02-15T10:52:55;15.66;73.70
40059;SHT31;25763;49.972;8.568;2024-02-15T10:55:40;15.83;72.35
40059;SHT31;25763;49.972;8.568;2024-02-15T10:58:09;16.04;72.16
40059;SHT31;25763;49.972;8.568;2024-02-15T11:00:39;15.96;71.75
40059;SHT31;25763;49.972;8.568;2024-02-15T11:03:07;16.07;71.39
40059;SHT31;25763;49.972;8.568;2024-02-15T11:05:37;16.03;71.83
40059;SHT31;25763;49.972;8.568;2024-02-15T11:08:05;16.24;71.85
40059;SHT31;25763;49.972;8.568;2024-02-15T11:10:32;15.97;70.73
40059;SHT31;25763;49.972;8.568;2024-02-15T11:12:59;15.79;71.56
40059;SHT31;25763;49.972;8.568;2024-02-15T11:15:44;15.56;71.64
40059;SHT31;25763;49.972;8.568;2024-02-15T11:18:49;15.26;72.15
40059;SHT31;25763;49.972;8.568;2024-02-15T11:21:17;15.41;72.89
40059;SHT31;25763;49.972;8.568;2024-02-15T11:23:43;15.49;72.55
40059;SHT31;25763;49.972;8.568;2024-02-15T11:26:45;15.71;72.68
40059;SHT31;25763;49.972;8.568;2024-02-15T11:32:36;15.73;72.34
40059;SHT31;25763;49.972;8.568;2024-02-15T11:35:05;16.04;72.19
40059;SHT31;25763;49.972;8.568;2024-02-15T11:40:17;16.25;70.78
40059;SHT31;25763;49.972;8.568;2024-02-15T11:42:43;16.14;70.80
40059;SHT31;25763;49.972;8.568;2024-02-15T11:45:09;16.17;71.18
40059;SHT31;25763;49.972;8.568;2024-02-15T11:47:39;16.14;70.69
40059;SHT31;25763;49.972;8.568;2024-02-15T11:50:09;15.97;70.24
40059;SHT31;25763;49.972;8.568;2024-02-15T11:52:49;15.74;71.27
40059;SHT31;25763;49.972;8.568;2024-02-15T11:55:19;15.65;71.52
40059;SHT31;25763;49.972;8.568;2024-02-15T11:57:55;15.69;70.72
40059;SHT31;25763;49.972;8.568;2024-02-15T12:00:28;15.86;71.52
40059;SHT31;25763;49.972;8.568;2024-02-15T12:03:14;15.88;71.23
40059;SHT31;25763;49.972;8.568;2024-02-15T12:05:58;15.91;70.76
40059;SHT31;25763;49.972;8.568;2024-02-15T12:08:46;15.83;70.35
40059;SHT31;25763;49.972;8.568;2024-02-15T12:11:30;15.80;70.53
40059;SHT31;25763;49.972;8.568;2024-02-15T12:14:15;15.98;70.72
40059;SHT31;25763;49.972;8.568;2024-02-15T12:19:54;16.12;70.01
40059;SHT31;25763;49.972;8.568;2024-02-15T12:22:37;16.36;70.03
40059;SHT31;25763;49.972;8.568;2024-02-15T12:25:06;16.46;69.43
40059;SHT31;25763;49.972;8.568;2024-02-15T12:27:44;16.29;69.66
40059;SHT31;25763;49.972;8.568;2024-02-15T12:30:16;16.29;69.17
40059;SHT31;25763;49.972;8.568;2024-02-15T12:32:51;16.32;69.11
40059;SHT31;25763;49.972;8.568;2024-02-15T12:35:19;16.18;69.13
40059;SHT31;25763;49.972;8.568;2024-02-15T12:37:49;16.24;69.85
40059;SHT31;25763;49.972;8.568;2024-02-15T12:40:34;16.50;70.19
40059;SHT31;25763;49.972;8.568;2024-02-15T12:43:01;16.74;69.18
40059;SHT31;25763;49.972;8.568;2024-02-15T12:45:29;16.85;69.18
40059;SHT31;25763;49.972;8.568;2024-02-15T12:47:55;16.97;69.01
40059;SHT31;25763;49.972;8.568;2024-02-15T12:50:23;17.01;68.18
40059;SHT31;25763;49.972;8.568;2024-02-15T12:52:50;16.80;66.95
40059;SHT31;25763;49.972;8.568;2024-02-15T12:55:24;16.61;67.03
40059;SHT31;25763;49.972;8.568;2024-02-15T12:57:51;16.65;67.18
40059;SHT31;25763;49.972;8.568;2024-02-15T13:00:22;16.71;67.66
40059;SHT31;25763;49.972;8.568;2024-02-15T13:02:53;16.78;67.02
40059;SHT31;25763;49.972;8.568;2024-02-15T13:05:19;16.91;67.06
40059;SHT31;25763;49.972;8.568;2024-02-15T13:07:48;16.97;66.90
40059;SHT31;25763;49.972;8.568;2024-02-15T13:10:14;16.97;66.95
40059;SHT31;25763;49.972;8.568;2024-02-15T13:12:43;16.77;66.66
40059;SHT31;25763;49.972;8.568;2024-02-15T13:15:12;16.73;67.05
40059;SHT31;25763;49.972;8.568;2024-02-15T13:17:43;16.78;67.27
40059;SHT31;25763;49.972;8.568;2024-02-15T13:20:10;16.78;67.16
40059;SHT31;25763;49.972;8.568;2024-02-15T13:22:40;16.78;67.27
40059;SHT31;25763;49.972;8.568;2024-02-15T13:25:07;16.61;67.30
40059;SHT31;25763;49.972;8.568;2024-02-15T13:27:36;16.71;67.95
40059;SHT31;25763;49.972;8.568;2024-02-15T13:30:04;16.65;67.63
40059;SHT31;25763;49.972;8.568;2024-02-15T13:32:36;16.73;67.47
40059;SHT31;25763;49.972;8.568;2024-02-15T13:35:07;16.78;67.76
40059;SHT31;25763;49.972;8.568;2024-02-15T13:37:43;16.64;67.09
40059;SHT31;25763;49.972;8.568;2024-02-15T13:40:11;16.68;67.36
40059;SHT31;25763;49.972;8.568;2024-02-15T13:42:46;16.57;67.25
40059;SHT31;25763;49.972;8.568;2024-02-15T13:45:18;16.53;68.01
40059;SHT31;25763;49.972;8.568;2024-02-15T13:47:47;16.50;67.96
40059;SHT31;25763;49.972;8.568;2024-02-15T13:50:12;16.55;67.60
40059;SHT31;25763;49.972;8.568;2024-02-15T13:52:42;16.52;67.62
40059;SHT31;25763;49.972;8.568;2024-02-15T13:55:12;16.47;67.50
40059;SHT31;25763;49.972;8.568;2024-02-15T13:57:42;16.40;67.37
40059;SHT31;25763;49.972;8.568;2024-02-15T14:00:09;16.43;67.81
40059;SHT31;25763;49.972;8.568;2024-02-15T14:02:42;16.36;67.60
40059;SHT31;25763;49.972;8.568;2024-02-15T14:05:11;16.32;67.95
40059;SHT31;25763;49.972;8.568;2024-02-15T14:07:39;16.30;67.70
40059;SHT31;25763;49.972;8.568;2024-02-15T14:10:05;16.22;67.75
40059;SHT31;25763;49.972;8.568;2024-02-15T14:12:31;16.28;67.93
40059;SHT31;25763;49.972;8.568;2024-02-15T14:14:57;16.22;68.01
40059;SHT31;25763;49.972;8.568;2024-02-15T14:17:22;16.24;67.82
40059;SHT31;25763;49.972;8.568;2024-02-15T14:19:49;16.21;67.74
40059;SHT31;25763;49.972;8.568;2024-02-15T14:22:14;16.32;68.45
40059;SHT31;25763;49.972;8.568;2024-02-15T14:24:44;16.25;67.47
40059;SHT31;25763;49.972;8.568;2024-02-15T14:27:10;16.29;67.66
40059;SHT31;25763;49.972;8.568;2024-02-15T14:29:36;16.18;67.64
40059;SHT31;25763;49.972;8.568;2024-02-15T14:32:10;16.26;68.47
40059;SHT31;25763;49.972;8.568;2024-02-15T14:34:54;16.20;68.67
40059;SHT31;25763;49.972;8.568;2024-02-15T14:37:22;16.22;68.46
40059;SHT31;25763;49.972;8.568;2024-02-15T14:39:47;16.15;68.14
40059;SHT31;25763;49.972;8.568;2024-02-15T14:42:12;16.14;68.27
40059;SHT31;25763;49.972;8.568;2024-02-15T14:44:38;16.08;67.57
40059;SHT31;25763;49.972;8.568;2024-02-15T14:47:03;16.08;68.32
40059;SHT31;25763;49.972;8.568;2024-02-15T14:49:29;16.15;68.45
40059;SHT31;25763;49.972;8.568;2024-02-15T14:51:54;16.18;68.16
40059;SHT31;25763;49.972;8.568;2024-02-15T14:54:20;16.10;67.78
40059;SHT31;25763;49.972;8.568;2024-02-15T14:56:45;16.08;68.15
40059;SHT31;25763;49.972;8.568;2024-02-15T14:59:11;15.96;67.02
40059;SHT31;25763;49.972;8.568;2024-02-15T15:01:36;15.86;67.48
40059;SHT31;25763;49.972;8.568;2024-02-15T15:04:02;15.83;68.15
40059;SHT31;25763;49.972;8.568;2024-02-15T15:06:31;15.90;68.94
40059;SHT31;25763;49.972;8.568;2024-02-15T15:09:15;15.88;68.75
40059;SHT31;25763;49.972;8.568;2024-02-15T15:11:59;15.88;68.42
40059;SHT31;25763;49.972;8.568;2024-02-15T15:14:43;15.88;68.41
40059;SHT31;25763;49.972;8.568;2024-02-15T15:17:10;15.86;68.59
40059;SHT31;25763;49.972;8.568;2024-02-15T15:19:38;15.83;68.72
40059;SHT31;25763;49.972;8.568;2024-02-15T15:22:04;15.76;68.29
40059;SHT31;25763;49.972;8.568;2024-02-15T15:24:31;15.73;68.28
40059;SHT31;25763;49.972;8.568;2024-02-15T15:26:58;15.69;68.22
40059;SHT31;25763;49.972;8.568;2024-02-15T15:29:23;15.62;68.13
40059;SHT31;25763;49.972;8.568;2024-02-15T15:31:48;15.53;68.46
40059;SHT31;25763;49.972;8.568;2024-02-15T15:34:14;15.58;68.64
40059;SHT31;25763;49.972;8.568;2024-02-15T15:36:41;15.56;69.11
40059;SHT31;25763;49.972;8.568;2024-02-15T15:39:07;15.55;69.13
40059;SHT31;25763;49.972;8.568;2024-02-15T15:41:35;15.59;69.53
40059;SHT31;25763;49.972;8.568;2024-02-15T15:44:00;15.52;69.68